Time;durP1;ratioP1;P1;durP2;ratioP2;P2;SDS_P1;SDS_P2;PMS_P1;PMS_P2;Temp;Humidity;BMP_temperature;BMP_pressure;BME280_temperature;BME280_humidity;BME280_pressure;Samples;Min_cycle;Max_cycle;Signal;HPM_P1;HPM_P2
2022/11/01 00:01:30;;;;;;;7.40;4.40;;;;;;;1.38;78.83;99571.19;102333;1291;75238;-24
2022/11/01 00:03:57;;;;;;;6.90;4.70;;;;;;;1.08;79.19;99573.40;102366;1296;61145;-24
2022/11/01 00:06:24;;;;;;;6.50;4.00;;;;;;;0.84;79.92;99576.59;102321;1297;61835;-24
2022/11/01 00:08:51;;;;;;;19.00;9.60;;;;;;;1.28;80.75;99574.11;102295;1300;74099;-24
2022/11/01 00:11:18;;;;;;;10.40;5.60;;;;;;;1.91;80.33;99577.85;102263;1293;76744;-24
2022/11/01 00:13:47;;;;;;;10.30;5.30;;;;;;;2.02;79.64;99576.59;102199;1298;74696;-24
2022/11/01 00:16:15;;;;;;;5.20;3.50;;;;;;;1.84;79.22;99573.00;102117;1302;61150;-25
2022/11/01 00:18:42;;;;;;;6.90;3.50;;;;;;;1.48;78.19;99576.67;102055;1298;61953;-24
2022/11/01 00:21:10;;;;;;;11.40;4.50;;;;;;;1.09;78.63;99574.06;102293;1302;76280;-24
2022/11/01 00:23:38;;;;;;;7.20;4.30;;;;;;;0.80;79.68;99574.17;102285;1299;75531;-24
2022/11/01 00:26:05;;;;;;;11.60;6.30;;;;;;;0.55;80.70;99573.77;102354;1299;75056;-24
2022/11/01 00:28:32;;;;;;;13.80;4.10;;;;;;;0.38;81.63;99572.27;102307;1291;63659;-24
2022/11/01 00:31:00;;;;;;;26.70;11.20;;;;;;;0.82;82.02;99571.55;102295;1297;61447;-24
2022/11/01 00:33:27;;;;;;;14.60;5.80;;;;;;;1.42;80.89;99571.06;102388;1298;76452;-24
2022/11/01 00:35:58;;;;;;;10.10;5.50;;;;;;;1.55;79.72;99571.97;102334;1299;76806;-24
2022/11/01 00:38:26;;;;;;;7.10;4.20;;;;;;;1.39;79.68;99572.20;101984;1299;74271;-24
2022/11/01 00:40:53;;;;;;;7.00;4.00;;;;;;;1.13;79.83;99573.08;102334;1299;62206;-24
2022/11/01 00:43:21;;;;;;;7.50;4.70;;;;;;;0.84;80.19;99573.00;102286;1299;61809;-25
2022/11/01 00:45:48;;;;;;;8.50;4.70;;;;;;;0.57;80.33;99575.75;102339;1298;75030;-24
2022/11/01 00:48:15;;;;;;;8.70;4.10;;;;;;;0.32;81.23;99575.33;102312;1298;75787;-24
2022/11/01 00:50:42;;;;;;;4.40;2.50;;;;;;;0.14;81.78;99576.39;102330;1297;75094;-24
2022/11/01 00:53:10;;;;;;;16.30;7.10;;;;;;;0.63;81.51;99570.80;102298;1299;61085;-24
2022/11/01 00:55:38;;;;;;;31.00;12.40;;;;;;;1.29;80.72;99570.83;102335;1295;61975;-24
2022/11/01 00:58:05;;;;;;;12.30;6.10;;;;;;;1.40;80.11;99570.98;102187;1297;75277;-24
2022/11/01 01:00:32;;;;;;;8.80;4.40;;;;;;;1.23;79.87;99565.05;102243;1301;74676;-24
2022/11/01 01:02:59;;;;;;;8.30;4.50;;;;;;;0.97;80.21;99562.15;102338;1302;74727;-24
2022/11/01 01:05:27;;;;;;;23.50;11.40;;;;;;;0.71;80.33;99563.69;102362;1302;61796;-24
2022/11/01 01:07:55;;;;;;;11.90;5.60;;;;;;;0.48;80.95;99563.75;102336;1302;62593;-24
2022/11/01 01:10:22;;;;;;;5.90;2.70;;;;;;;0.28;81.39;99564.87;102324;1297;75330;-24
2022/11/01 01:12:49;;;;;;;7.80;4.00;;;;;;;0.65;81.47;99562.02;102303;1299;76982;-24
2022/11/01 01:15:17;;;;;;;7.70;4.00;;;;;;;1.20;79.86;99561.21;102299;1299;75213;-24
2022/11/01 01:17:45;;;;;;;9.20;4.20;;;;;;;1.22;78.74;99559.27;102309;1297;62949;-24
2022/11/01 01:20:13;;;;;;;6.00;3.50;;;;;;;0.98;78.43;99561.62;102260;1299;61559;-24
2022/11/01 01:22:41;;;;;;;6.80;3.90;;;;;;;0.65;78.25;99560.64;102360;1292;76394;-24
2022/11/01 01:25:09;;;;;;;6.70;3.40;;;;;;;0.30;78.73;99563.79;102332;1299;76786;-24
2022/11/01 01:27:37;;;;;;;7.40;4.00;;;;;;;-0.07;79.46;99563.87;102139;1303;75224;-24
2022/11/01 01:30:05;;;;;;;11.40;4.40;;;;;;;-0.35;80.15;99567.04;102262;1297;61496;-24
2022/11/01 01:32:32;;;;;;;8.90;3.00;;;;;;;-0.53;80.83;99566.88;102239;1294;63120;-24
2022/11/01 01:35:00;;;;;;;4.90;3.10;;;;;;;-0.14;81.21;99567.14;102317;1297;76405;-24
2022/11/01 01:37:27;;;;;;;7.10;3.40;;;;;;;0.51;80.50;99561.42;102282;1292;76751;-24
2022/11/01 01:39:54;;;;;;;9.40;3.80;;;;;;;0.68;80.08;99561.41;102290;1302;74081;-24
2022/11/01 01:42:30;;;;;;;5.10;2.30;;;;;;;0.54;79.97;99561.16;102263;1297;62012;-24
2022/11/01 01:44:57;;;;;;;12.70;4.80;;;;;;;0.29;80.12;99561.27;102078;1301;63067;-24
2022/11/01 01:47:31;;;;;;;7.00;4.20;;;;;;;0.03;80.26;99558.64;102281;1299;76401;-24
2022/11/01 01:50:01;;;;;;;11.40;4.10;;;;;;;-0.20;80.57;99559.95;102050;1300;76452;-24
2022/11/01 01:52:30;;;;;;;15.70;6.40;;;;;;;-0.41;81.05;99562.94;102302;1302;74504;-24
2022/11/01 01:54:59;;;;;;;6.10;3.10;;;;;;;-0.56;81.37;99564.90;102250;1301;63696;-24
2022/11/01 01:57:26;;;;;;;14.40;5.70;;;;;;;-0.07;81.98;99563.87;102207;1299;63136;-24
2022/11/01 01:59:53;;;;;;;7.60;3.90;;;;;;;0.63;80.95;99567.21;102309;1300;76378;-24
2022/11/01 02:02:20;;;;;;;13.10;5.80;;;;;;;0.79;80.27;99566.68;102329;1295;75521;-24
2022/11/01 02:04:57;;;;;;;7.80;4.00;;;;;;;0.67;79.71;99564.35;102287;1294;75202;-24
2022/11/01 02:07:24;;;;;;;7.80;3.20;;;;;;;0.41;79.57;99562.92;102266;1294;61182;-24
2022/11/01 02:09:51;;;;;;;6.10;3.00;;;;;;;0.15;79.78;99564.57;102352;1283;62873;-24
2022/11/01 02:12:18;;;;;;;4.90;3.20;;;;;;;-0.11;80.01;99562.29;102363;1298;76108;-24
2022/11/01 02:14:45;;;;;;;5.80;3.70;;;;;;;-0.36;80.19;99560.10;102340;1299;76590;-24
2022/11/01 02:17:33;;;;;;;4.40;2.30;;;;;;;-0.57;80.99;99560.48;102285;1302;75032;-24
2022/11/01 02:20:19;;;;;;;7.30;2.80;;;;;;;-0.02;81.23;99561.50;102275;1300;62119;-24
2022/11/01 02:22:59;;;;;;;12.80;4.20;;;;;;;0.58;80.05;99556.93;102198;1285;61662;-24
2022/11/01 02:26:05;;;;;;;8.20;3.10;;;;;;;0.57;79.59;99556.80;102123;1295;76171;-25
2022/11/01 02:28:50;;;;;;;6.40;3.40;;;;;;;0.29;79.68;99558.87;102317;1302;75668;-24
2022/11/01 02:31:27;;;;;;;7.40;3.30;;;;;;;-0.01;79.90;99565.06;102316;1292;75060;-24
2022/11/01 02:34:06;;;;;;;25.20;7.90;;;;;;;-0.26;80.15;99560.83;102129;1296;61182;-24
2022/11/01 02:36:58;;;;;;;47.10;16.80;;;;;;;-0.49;80.77;99563.86;102272;1302;61597;-24
2022/11/01 02:39:28;;;;;;;35.90;8.00;;;;;;;-0.67;81.28;99566.91;101991;1299;76399;-24
2022/11/01 02:42:06;;;;;;;51.30;10.90;;;;;;;-0.07;81.61;99564.20;102268;1299;76603;-24
2022/11/01 02:44:36;;;;;;;15.20;5.40;;;;;;;0.63;80.22;99561.55;102162;1294;75273;-24
2022/11/01 02:47:03;;;;;;;128.20;32.30;;;;;;;0.69;78.95;99563.26;102246;1294;62628;-24
2022/11/01 02:49:41;;;;;;;76.80;19.30;;;;;;;0.49;78.59;99563.88;102169;1294;62577;-24
2022/11/01 02:52:15;;;;;;;44.70;13.50;;;;;;;0.21;78.67;99567.48;102127;1299;76319;-24
2022/11/01 02:54:43;;;;;;;40.50;14.50;;;;;;;-0.07;79.16;99571.91;102154;1300;74862;-25
2022/11/01 02:57:33;;;;;;;54.40;16.30;;;;;;;-0.33;79.95;99566.30;102170;1294;74080;-24
2022/11/01 03:00:12;;;;;;;38.70;12.80;;;;;;;-0.57;80.78;99565.94;102344;1298;61249;-24
2022/11/01 03:02:41;;;;;;;8.70;3.60;;;;;;;-0.73;80.89;99563.48;102124;1302;62835;-24
2022/11/01 03:05:21;;;;;;;15.60;5.40;;;;;;;-0.21;81.27;99566.83;102169;1294;76365;-24
2022/11/01 03:07:54;;;;;;;7.40;3.70;;;;;;;0.46;79.98;99562.94;102121;1299;76570;-24
2022/11/01 03:10:22;;;;;;;9.60;5.00;;;;;;;0.56;79.34;99562.81;101995;1294;75029;-24
2022/11/01 03:12:59;;;;;;;8.20;3.80;;;;;;;0.39;79.09;99567.61;102219;1298;62178;-24
2022/11/01 03:15:28;;;;;;;8.70;3.60;;;;;;;0.12;79.18;99567.39;102114;1285;61596;-25
2022/11/01 03:18:00;;;;;;;9.80;4.30;;;;;;;-0.14;79.34;99565.10;102092;1302;75246;-24
2022/11/01 03:20:46;;;;;;;26.10;9.40;;;;;;;-0.40;79.91;99565.15;102191;1301;76888;-24
2022/11/01 03:23:22;;;;;;;37.40;12.40;;;;;;;-0.64;80.46;99566.31;102086;1299;73934;-24
2022/11/01 03:25:51;;;;;;;14.80;5.40;;;;;;;-0.81;81.17;99566.58;101989;1298;62742;-26
2022/11/01 03:28:21;;;;;;;35.20;12.80;;;;;;;-0.32;81.32;99569.70;102258;1299;62970;-24
2022/11/01 03:30:55;;;;;;;22.30;8.50;;;;;;;0.35;80.57;99565.69;102306;1302;76772;-24
2022/11/01 03:33:21;;;;;;;;;;;;;;;0.47;79.37;99565.83;102344;1301;76555;-24
2022/11/01 03:35:50;;;;;;;18.30;8.70;;;;;;;0.30;79.22;99564.14;102294;1302;74170;-24
2022/11/01 03:38:19;;;;;;;20.00;6.90;;;;;;;0.04;79.22;99563.39;102303;1300;61114;-24
2022/11/01 03:40:53;;;;;;;22.30;9.20;;;;;;;-0.21;79.64;99566.66;102243;1299;61601;-24
2022/11/01 03:43:20;;;;;;;11.20;4.80;;;;;;;-0.45;80.07;99564.95;102351;1302;76383;-24
2022/11/01 03:45:47;;;;;;;16.40;7.10;;;;;;;-0.68;80.34;99566.59;102282;1299;75870;-24
2022/11/01 03:48:14;;;;;;;10.90;4.60;;;;;;;-0.86;80.57;99564.33;102333;1295;73856;-24
2022/11/01 03:50:49;;;;;;;11.10;4.60;;;;;;;-0.44;81.17;99564.56;102311;1298;63904;-24
2022/11/01 03:53:16;;;;;;;9.00;3.90;;;;;;;0.26;80.11;99562.70;102228;1302;62577;-24
2022/11/01 03:55:43;;;;;;;8.40;3.60;;;;;;;0.40;79.21;99564.19;102275;1297;75351;-24
2022/11/01 03:58:10;;;;;;;7.70;3.70;;;;;;;0.22;78.98;99563.33;102273;1295;76812;-24
2022/11/01 04:00:42;;;;;;;11.00;4.30;;;;;;;-0.04;79.13;99558.33;102308;1299;75247;-24
2022/11/01 04:03:10;;;;;;;8.90;4.20;;;;;;;-0.33;79.17;99555.89;102155;1295;61188;-24
2022/11/01 04:05:38;;;;;;;8.80;4.60;;;;;;;-0.61;79.80;99554.30;102284;1294;62867;-25
2022/11/01 04:08:06;;;;;;;13.50;5.40;;;;;;;-0.84;80.38;99555.23;102091;1295;74191;-24
2022/11/01 04:10:33;;;;;;;6.50;3.70;;;;;;;-1.01;80.93;99556.20;102296;1299;75813;-24
2022/11/01 04:13:00;;;;;;;7.60;3.90;;;;;;;-0.59;81.35;99559.52;102210;1293;73887;-24
2022/11/01 04:21:24;;;;;;;6.30;3.10;;;;;;;-0.11;78.85;99549.64;102313;1300;76384;-24
2022/11/01 04:23:51;;;;;;;11.40;4.20;;;;;;;-0.43;78.88;99542.71;102339;1299;74902;-24
2022/11/01 04:26:20;;;;;;;54.00;16.10;;;;;;;-0.65;79.69;99537.35;102314;1298;74225;-25
2022/11/01 04:28:57;;;;;;;71.40;18.70;;;;;;;-0.84;80.83;99537.67;102117;1299;61157;-24
2022/11/01 04:31:32;;;;;;;103.00;21.30;;;;;;;-1.02;81.31;99535.76;102318;1302;62839;-25
2022/11/01 04:34:00;;;;;;;18.60;5.00;;;;;;;-1.15;82.11;99530.80;102171;1302;76506;-24
2022/11/01 04:36:27;;;;;;;19.10;5.70;;;;;;;-0.62;81.81;99537.61;102194;1302;76775;-25
2022/11/01 05:31:25;;;;;;;11.60;3.50;;;;;;;-2.55;87.99;99514.91;99579;1311;616268;-26
2022/11/01 05:33:53;;;;;;;11.50;4.80;;;;;;;-1.49;88.09;99515.27;101413;1312;62739;-26
2022/11/01 05:36:20;;;;;;;15.30;7.40;;;;;;;-0.44;87.29;99510.50;101435;1312;61646;-24
2022/11/01 05:38:47;;;;;;;17.90;7.90;;;;;;;-0.08;85.53;99509.63;101387;1304;73983;-24
2022/11/01 05:41:15;;;;;;;15.50;8.20;;;;;;;-0.06;84.90;99514.67;101420;1304;75750;-24
2022/11/01 05:43:42;;;;;;;12.80;8.00;;;;;;;-0.16;84.10;99511.38;100565;1307;1261620;-23
2022/11/01 05:46:10;;;;;;;15.40;8.10;;;;;;;-0.27;84.16;99515.65;101669;1308;61159;-23
2022/11/01 05:48:37;;;;;;;17.00;9.20;;;;;;;-0.36;84.30;99514.02;101706;1301;61844;-23
2022/11/01 05:51:05;;;;;;;12.80;4.50;;;;;;;-0.36;84.67;99516.58;101735;1307;73812;-23
2022/11/01 05:53:32;;;;;;;12.10;6.40;;;;;;;0.27;84.95;99513.13;101693;1293;75857;-24
2022/11/01 05:55:59;;;;;;;15.90;7.50;;;;;;;1.09;83.40;99509.77;101668;1300;74085;-23
2022/11/01 05:58:27;;;;;;;13.50;5.90;;;;;;;1.32;81.74;99509.63;101656;1308;61672;-24
2022/11/01 06:00:58;;;;;;;10.10;6.00;;;;;;;1.27;81.51;99515.65;101714;1301;61663;-24
2022/11/01 06:03:26;;;;;;;11.50;6.00;;;;;;;1.13;81.20;99517.50;101963;1305;74631;-24
2022/11/01 06:05:53;;;;;;;13.30;6.30;;;;;;;0.98;81.63;99516.98;101937;1305;74810;-23
2022/11/01 06:08:20;;;;;;;13.10;6.90;;;;;;;0.89;82.04;99519.35;102144;1302;74101;-23
2022/11/01 06:10:48;;;;;;;7.50;3.80;;;;;;;0.83;82.34;99520.55;102156;1294;62527;-25
2022/11/01 06:13:16;;;;;;;14.10;6.00;;;;;;;1.40;82.70;99525.60;102203;1302;61894;-25
2022/11/01 06:15:43;;;;;;;18.90;8.70;;;;;;;2.17;81.36;99530.46;102247;1302;74828;-24
2022/11/01 06:18:11;;;;;;;13.50;6.70;;;;;;;2.44;80.04;99526.67;102099;1295;75388;-24
2022/11/01 06:20:38;;;;;;;13.30;7.00;;;;;;;2.44;79.66;99525.63;101925;1303;74202;-24
2022/11/01 06:23:09;;;;;;;15.30;8.50;;;;;;;2.40;79.88;99528.70;102537;1291;61737;-24
2022/11/01 06:25:36;;;;;;;14.40;7.50;;;;;;;2.33;79.83;99527.95;102314;1299;62190;-24
2022/11/01 06:28:04;;;;;;;12.70;7.40;;;;;;;2.27;80.15;99526.66;102300;1299;74629;-24
2022/11/01 06:30:31;;;;;;;12.60;8.40;;;;;;;2.19;80.44;99525.06;102567;1299;74694;-24
2022/11/01 06:32:59;;;;;;;8.50;4.40;;;;;;;2.16;80.91;99520.38;102487;1299;74223;-24
2022/11/01 06:35:28;;;;;;;13.50;7.20;;;;;;;2.70;81.31;99513.60;102402;1297;61159;-25
2022/11/01 06:38:06;;;;;;;14.20;7.80;;;;;;;3.45;80.01;99517.96;102429;1292;61780;-24
2022/11/01 06:40:35;;;;;;;13.40;7.60;;;;;;;3.76;78.82;99518.15;102278;1294;74528;-25
2022/11/01 06:43:04;;;;;;;13.80;8.80;;;;;;;3.78;78.35;99518.60;102184;1294;75751;-25
2022/11/01 06:45:32;;;;;;;15.00;7.80;;;;;;;3.75;78.46;99517.15;102166;1294;74369;-25
2022/11/01 06:48:00;;;;;;;14.60;8.00;;;;;;;3.78;79.06;99520.63;102349;1297;61946;-24
2022/11/01 06:50:29;;;;;;;15.30;9.00;;;;;;;3.86;79.11;99525.23;102318;1292;62000;-25
2022/11/01 06:52:57;;;;;;;15.20;8.30;;;;;;;3.95;79.24;99522.09;102413;1292;74626;-25
2022/11/01 06:55:25;;;;;;;12.10;8.40;;;;;;;4.11;79.51;99523.91;102351;1299;75567;-25
2022/11/01 06:58:00;;;;;;;16.00;8.70;;;;;;;4.31;79.72;99521.95;102384;1302;74340;-25
2022/11/01 07:00:29;;;;;;;13.00;9.20;;;;;;;4.53;79.52;99519.20;102320;1299;61093;-25
2022/11/01 07:03:00;;;;;;;14.60;9.80;;;;;;;4.70;79.23;99518.73;102443;1291;61097;-25
2022/11/01 07:05:28;;;;;;;13.20;9.30;;;;;;;4.88;78.72;99515.73;102249;1299;74710;-24
2022/11/01 07:08:01;;;;;;;14.70;9.10;;;;;;;5.03;78.75;99509.16;102357;1299;74811;-24
2022/11/01 07:10:29;;;;;;;15.50;9.50;;;;;;;5.16;78.74;99510.54;102435;1291;74312;-24
2022/11/01 07:13:00;;;;;;;14.10;8.10;;;;;;;5.28;78.47;99512.14;102382;1299;61682;-25
2022/11/01 07:15:27;;;;;;;16.50;10.40;;;;;;;5.45;78.40;99511.80;102240;1299;61038;-25
2022/11/01 07:17:58;;;;;;;17.90;10.00;;;;;;;5.66;78.19;99507.27;102441;1292;73578;-25
2022/11/01 07:20:28;;;;;;;13.30;7.60;;;;;;;5.87;77.33;99506.83;102319;1299;74830;-25
2022/11/01 07:22:59;;;;;;;14.70;9.10;;;;;;;6.05;75.91;99503.45;102367;1294;72519;-25
2022/11/01 07:25:27;;;;;;;14.40;8.10;;;;;;;6.20;74.84;99502.97;102158;1299;61801;-25
2022/11/01 07:27:54;;;;;;;16.60;7.90;;;;;;;6.31;73.78;99498.40;102376;1299;62025;-25
2022/11/01 07:30:22;;;;;;;14.50;7.90;;;;;;;6.32;73.61;99494.20;102407;1297;74696;-25
2022/11/01 07:32:56;;;;;;;11.00;7.10;;;;;;;6.36;73.74;99488.45;102416;1299;75792;-25
2022/11/01 07:35:24;;;;;;;10.70;7.10;;;;;;;6.49;73.95;99488.29;102192;1299;73225;-25
2022/11/01 07:37:52;;;;;;;11.20;6.70;;;;;;;6.69;73.69;99485.69;102385;1298;61794;-25
2022/11/01 07:40:26;;;;;;;11.60;7.20;;;;;;;6.86;72.43;99484.19;102254;1293;61122;-25
2022/11/01 07:42:55;;;;;;;9.20;5.50;;;;;;;6.94;70.68;99485.47;102350;1298;74339;-25
2022/11/01 07:45:23;;;;;;;12.00;5.00;;;;;;;7.08;69.52;99481.40;102307;1294;74805;-25
2022/11/01 07:47:51;;;;;;;7.50;4.80;;;;;;;7.24;68.50;99480.05;102352;1294;74363;-25
2022/11/01 07:50:20;;;;;;;11.50;5.70;;;;;;;7.38;66.91;99478.67;102191;1299;61923;-25
2022/11/01 07:52:47;;;;;;;9.50;4.50;;;;;;;7.55;66.64;99479.23;102416;1299;61114;-25
2022/11/01 07:55:52;;;;;;;8.40;5.30;;;;;;;7.68;65.80;99476.66;102410;1299;74623;-25
2022/11/01 07:58:19;;;;;;;10.60;4.80;;;;;;;7.89;64.52;99465.33;102392;1299;75779;-25
2022/11/01 08:00:46;;;;;;;11.60;4.80;;;;;;;8.11;64.16;99464.83;102387;1299;74259;-25
2022/11/01 08:03:16;;;;;;;9.60;5.10;;;;;;;8.31;63.51;99460.27;102278;1298;61183;-25
2022/11/01 08:05:44;;;;;;;10.70;4.80;;;;;;;8.56;62.94;99459.51;102098;1299;61836;-25
2022/11/01 08:08:11;;;;;;;11.30;5.10;;;;;;;8.79;62.47;99455.56;102390;1299;74615;-25
2022/11/01 08:17:57;;;;;;;14.50;4.70;;;;;;;9.46;60.84;99447.55;99268;1333;600133;-24
2022/11/01 08:20:25;;;;;;;8.10;3.60;;;;;;;9.53;60.17;99445.29;101291;1304;61541;-23
2022/11/01 08:22:52;;;;;;;7.00;3.90;;;;;;;9.60;59.15;99440.13;101372;1311;61207;-23
2022/11/01 08:25:19;;;;;;;7.70;4.00;;;;;;;9.66;57.35;99439.58;101314;1307;74559;-24
2022/11/01 08:27:46;;;;;;;6.00;3.10;;;;;;;9.68;56.66;99440.27;101320;1304;75839;-23
2022/11/01 08:30:14;;;;;;;5.60;2.90;;;;;;;9.68;56.50;99435.73;101162;1314;74228;-23
2022/11/01 08:32:42;;;;;;;3.70;2.20;;;;;;;9.82;56.11;99435.83;100576;1314;1044204;-24
2022/11/01 08:35:10;;;;;;;6.70;2.50;;;;;;;9.89;54.87;99433.42;101421;1311;62802;-24
2022/11/01 08:37:49;;;;;;;6.90;3.30;;;;;;;9.94;54.69;99426.61;101366;1311;75093;-23
2022/11/01 08:40:16;;;;;;;3.30;2.70;;;;;;;10.23;55.67;99427.28;101191;1303;75694;-23
2022/11/01 08:42:43;;;;;;;8.30;3.90;;;;;;;10.26;54.67;99427.41;101406;1312;75135;-23
2022/11/01 08:45:11;;;;;;;6.70;3.60;;;;;;;10.63;56.07;99428.16;101246;1312;61869;-24
2022/11/01 08:47:39;;;;;;;6.30;3.00;;;;;;;11.14;55.73;99427.46;101452;1310;62555;-23
2022/11/01 08:50:07;;;;;;;10.70;2.50;;;;;;;11.48;53.83;99422.33;101071;1307;75619;-24
2022/11/01 08:52:38;;;;;;;4.80;2.60;;;;;;;11.56;50.69;99418.48;101200;1313;76198;-23
2022/11/01 08:55:06;;;;;;;3.00;2.00;;;;;;;11.61;51.91;99419.56;101332;1312;74402;-23
2022/11/01 08:57:33;;;;;;;5.00;2.30;;;;;;;11.80;51.37;99415.81;101144;1301;62032;-24
2022/11/01 09:00:01;;;;;;;5.60;3.00;;;;;;;12.03;51.66;99413.30;101345;1311;62416;-24
2022/11/01 09:02:28;;;;;;;5.10;3.10;;;;;;;12.28;51.69;99411.30;101330;1310;75561;-23
2022/11/01 09:04:55;;;;;;;6.30;3.40;;;;;;;12.46;51.21;99407.00;101443;1311;75448;-23
2022/11/01 09:07:23;;;;;;;5.40;2.50;;;;;;;12.54;50.56;99405.70;101293;1314;75262;-23
2022/11/01 09:09:50;;;;;;;6.30;3.10;;;;;;;12.49;49.11;99404.32;101299;1305;62880;-23
2022/11/01 09:12:17;;;;;;;5.30;3.10;;;;;;;12.53;49.57;99398.59;101350;1311;62656;-24
2022/11/01 09:14:50;;;;;;;5.80;3.10;;;;;;;12.90;49.74;99397.91;101365;1308;75690;-23
2022/11/01 09:17:17;;;;;;;9.40;2.90;;;;;;;13.12;49.32;99398.98;101296;1310;74853;-23
2022/11/01 09:19:44;;;;;;;7.40;3.20;;;;;;;13.16;48.58;99393.13;101409;1311;74105;-23
2022/11/01 09:22:11;;;;;;;7.50;3.10;;;;;;;13.38;48.91;99394.48;101372;1311;61623;-23
2022/11/01 09:24:38;;;;;;;7.50;2.80;;;;;;;13.68;48.33;99391.95;101295;1311;62835;-24
2022/11/01 09:27:07;;;;;;;4.00;2.20;;;;;;;13.71;46.48;99390.08;101226;1308;74484;-24
2022/11/01 09:29:35;;;;;;;7.10;2.30;;;;;;;13.74;46.71;99388.42;101278;1305;76790;-24
2022/11/01 09:32:02;;;;;;;9.00;2.10;;;;;;;13.82;46.12;99382.29;101312;1304;74954;-23
2022/11/01 09:34:29;;;;;;;5.10;2.90;;;;;;;13.82;46.86;99380.72;101257;1301;62114;-23
2022/11/01 09:36:56;;;;;;;7.70;2.80;;;;;;;13.95;46.60;99378.92;101304;1304;62764;-23
2022/11/01 09:39:23;;;;;;;5.90;2.70;;;;;;;14.11;46.29;99378.66;101716;1308;74470;-24
2022/11/01 09:41:52;;;;;;;4.80;2.30;;;;;;;14.11;45.92;99377.76;101527;1307;75907;-23
2022/11/01 09:44:24;;;;;;;8.00;2.20;;;;;;;14.18;45.32;99372.27;101496;1311;75117;-23
2022/11/01 09:46:54;;;;;;;4.60;2.40;;;;;;;14.33;45.09;99371.80;101344;1308;62797;-25
2022/11/01 09:49:30;;;;;;;6.40;3.70;;;;;;;14.35;43.41;99365.52;101352;1308;62890;-25
2022/11/01 09:51:57;;;;;;;10.10;3.80;;;;;;;14.08;41.24;99364.46;101476;1305;75066;-25
2022/11/01 09:54:25;;;;;;;6.20;3.00;;;;;;;14.09;42.27;99363.28;101744;1309;76927;-25
2022/11/01 09:56:58;;;;;;;3.60;2.20;;;;;;;14.08;42.46;99364.73;101599;1308;74138;-24
2022/11/01 10:00:00;;;;;;;3.80;2.20;;;;;;;14.12;43.58;99362.30;101395;1307;61537;-24
2022/11/01 10:03:01;;;;;;;4.40;2.30;;;;;;;14.30;41.28;99358.58;101728;1307;63089;-24
2022/11/01 10:05:55;;;;;;;3.30;2.10;;;;;;;14.57;42.02;99360.70;101462;1308;74337;-25
2022/11/01 10:08:41;;;;;;;2.50;2.10;;;;;;;14.78;42.03;99360.16;101502;1311;76422;-24
2022/11/01 10:11:36;;;;;;;4.40;2.20;;;;;;;14.69;40.06;99357.45;101520;1309;74159;-25
2022/11/01 10:14:34;;;;;;;3.50;2.10;;;;;;;14.40;40.58;99354.52;101525;1309;62897;-24
2022/11/01 10:17:13;;;;;;;4.00;2.10;;;;;;;14.52;42.29;99350.30;101768;1307;62900;-25
2022/11/01 10:19:43;;;;;;;3.10;1.70;;;;;;;14.67;41.57;99346.83;101415;1309;74537;-24
2022/11/01 10:22:36;;;;;;;4.00;2.10;;;;;;;14.67;41.34;99345.04;101402;1311;77099;-24
2022/11/01 10:25:09;;;;;;;4.40;2.30;;;;;;;14.74;42.56;99346.89;101357;1308;74066;-25
2022/11/01 10:27:52;;;;;;;3.90;2.30;;;;;;;14.75;43.04;99349.08;101528;1311;62920;-25
2022/11/01 10:30:19;;;;;;;7.20;1.80;;;;;;;14.70;41.07;99347.61;102211;1301;62931;-24
2022/11/01 10:33:00;;;;;;;4.60;2.30;;;;;;;14.60;40.65;99345.48;102292;1292;75519;-24
2022/11/01 10:35:40;;;;;;;4.20;2.40;;;;;;;14.26;41.25;99342.71;102281;1292;76793;-25
2022/11/01 10:38:15;;;;;;;8.00;2.80;;;;;;;14.18;42.73;99337.38;102348;1299;75207;-25
2022/11/01 10:41:11;;;;;;;4.70;2.20;;;;;;;14.16;42.17;99336.27;102197;1300;62645;-24
2022/11/01 10:43:44;;;;;;;4.30;2.20;;;;;;;13.95;41.32;99334.36;102186;1294;61304;-25
2022/11/01 10:46:16;;;;;;;2.80;2.00;;;;;;;13.78;41.55;99336.13;102150;1294;74296;-25
2022/11/01 10:48:50;;;;;;;4.50;1.90;;;;;;;14.01;42.43;99330.83;102097;1294;76636;-26
2022/11/01 10:51:18;;;;;;;1.90;1.40;;;;;;;14.21;43.27;99327.15;101978;1305;74945;-25
2022/11/01 10:53:54;;;;;;;3.90;2.00;;;;;;;14.28;42.52;99324.40;102113;1301;62631;-25
2022/11/01 10:56:34;;;;;;;3.90;1.90;;;;;;;14.31;41.98;99319.41;102009;1294;62983;-24
2022/11/01 10:59:08;;;;;;;4.20;2.00;;;;;;;14.35;42.59;99319.58;102162;1300;75555;-24
2022/11/01 11:01:41;;;;;;;3.10;1.90;;;;;;;14.42;42.75;99315.61;102173;1297;75845;-24
2022/11/01 11:04:15;;;;;;;3.00;1.70;;;;;;;14.37;41.28;99311.52;102162;1294;74236;-23
2022/11/01 11:06:43;;;;;;;2.40;1.90;;;;;;;14.20;41.25;99308.35;102017;1303;61619;-24
2022/11/01 11:09:17;;;;;;;3.70;1.90;;;;;;;14.09;41.51;99302.77;102353;1298;61097;-24
2022/11/01 11:11:45;;;;;;;1.90;1.40;;;;;;;14.08;42.48;99298.80;102182;1296;75627;-25
2022/11/01 11:14:12;;;;;;;7.10;2.30;;;;;;;14.02;41.91;99298.64;102362;1300;75961;-27
2022/11/01 11:16:48;;;;;;;3.10;1.70;;;;;;;13.86;41.65;99299.25;102334;1297;75147;-27
2022/11/01 11:19:28;;;;;;;3.70;1.80;;;;;;;13.80;42.37;99298.86;102359;1293;62594;-26
2022/11/01 11:21:56;;;;;;;5.00;2.10;;;;;;;13.69;42.09;99293.96;102108;1302;61867;-24
2022/11/01 11:24:32;;;;;;;2.90;1.60;;;;;;;13.66;42.99;99292.79;102074;1301;74501;-25
2022/11/01 11:27:00;;;;;;;2.90;1.60;;;;;;;13.75;43.39;99298.13;102417;1302;76764;-26
2022/11/01 11:29:39;;;;;;;2.50;1.40;;;;;;;13.84;43.10;99292.77;102035;1302;75331;-25
2022/11/01 11:32:13;;;;;;;2.90;1.70;;;;;;;13.75;41.60;99288.87;102058;1304;62902;-23
2022/11/01 11:34:41;;;;;;;6.00;2.30;;;;;;;13.70;43.50;99286.74;102124;1301;61876;-23
2022/11/01 11:37:17;;;;;;;4.60;1.70;;;;;;;13.67;43.71;99285.91;102324;1299;75521;-23
2022/11/01 11:40:36;;;;;;;5.60;2.30;;;;;;;13.60;43.85;99285.17;101963;1298;76876;-23
2022/11/01 11:43:36;;;;;;;5.40;2.50;;;;;;;13.54;43.25;99280.27;101757;1306;75284;-23
2022/11/01 11:46:20;;;;;;;6.60;2.40;;;;;;;13.48;43.20;99274.73;101517;1306;61880;-23
2022/11/01 11:48:55;;;;;;;;;;;;;;;13.36;42.99;99271.96;101703;1305;62630;-23
2022/11/01 11:51:24;;;;;;;3.80;1.90;;;;;;;13.23;43.46;99268.90;101646;1304;75570;-23
2022/11/01 11:54:16;;;;;;;4.00;2.40;;;;;;;13.22;44.35;99267.91;101475;1303;76555;-23
2022/11/01 11:56:44;;;;;;;4.20;2.30;;;;;;;13.14;44.28;99264.63;101501;1311;75005;-23
2022/11/01 11:59:24;;;;;;;10.30;3.30;;;;;;;13.09;44.39;99266.09;101760;1306;62167;-23
2022/11/01 12:01:56;;;;;;;6.30;2.90;;;;;;;13.04;44.84;99267.79;101683;1301;62707;-23
2022/11/01 12:04:23;;;;;;;7.40;2.90;;;;;;;13.03;46.01;99267.48;101391;1307;73773;-24
2022/11/01 12:06:50;;;;;;;3.70;2.20;;;;;;;13.06;45.29;99261.66;101442;1305;75783;-24
2022/11/01 12:09:42;;;;;;;2.90;2.00;;;;;;;13.06;45.15;99259.36;101706;1307;74959;-24
2022/11/01 12:12:24;;;;;;;2.70;1.60;;;;;;;13.03;44.54;99254.14;101662;1298;61847;-24
2022/11/01 12:14:51;;;;;;;3.30;2.00;;;;;;;12.96;44.97;99254.17;101856;1299;61614;-24
2022/11/01 12:17:30;;;;;;;5.00;2.40;;;;;;;12.94;45.36;99250.71;102321;1291;75455;-24
2022/11/01 12:20:20;;;;;;;2.20;1.70;;;;;;;12.92;46.14;99245.75;102203;1302;75758;-24
2022/11/01 12:23:13;;;;;;;6.30;1.80;;;;;;;12.96;45.92;99239.54;102319;1299;75367;-24
2022/11/01 12:25:41;;;;;;;3.30;1.90;;;;;;;12.98;45.53;99230.55;102150;1298;61561;-24
2022/11/01 12:28:15;;;;;;;15.30;3.50;;;;;;;12.95;45.78;99229.52;102340;1300;62837;-24
2022/11/01 12:30:42;;;;;;;3.50;2.30;;;;;;;12.96;45.00;99225.45;102179;1298;75689;-24
2022/11/01 12:33:31;;;;;;;3.50;2.40;;;;;;;12.97;44.17;99221.90;102178;1299;77226;-24
2022/11/01 12:35:58;;;;;;;6.30;1.90;;;;;;;13.01;44.77;99223.59;102203;1302;74185;-24
2022/11/01 12:38:38;;;;;;;1.90;1.50;;;;;;;13.05;44.72;99221.13;102057;1301;61728;-24
2022/11/01 12:41:22;;;;;;;4.30;2.10;;;;;;;13.13;44.70;99211.53;102146;1300;62640;-24
2022/11/01 12:43:59;;;;;;;4.00;2.10;;;;;;;13.23;43.33;99206.66;102204;1298;76367;-24
2022/11/01 12:46:42;;;;;;;4.80;2.10;;;;;;;13.36;43.93;99202.36;102056;1299;76393;-24
2022/11/01 12:49:24;;;;;;;3.30;2.20;;;;;;;13.57;43.04;99205.06;102305;1299;74217;-23
2022/11/01 12:51:53;;;;;;;3.80;2.20;;;;;;;13.78;42.66;99200.36;102142;1295;61450;-24